Beauregard Regional Airport
KDRI : rendu visible

Aérodrome :











RETROUVEZ-NOUS SUR...

 
LOGIN :

S'inscrire | Disclaimer

   EN    FR    IT 

 









Légende :    VFR   VFR Marginal   IFR   IFR Intensif   IFR Très Intensif
Visi : 
Plafond : 
>= 8 km
>= 3000ft
5 à 8 km
1000 à 3000 ft
1500m à 5 km
500 à 1000 ft
800 à 1500m
200 à 500 ft
< 800m
< 200 ft
Symboles :   Orages  Brouillard  Fortes neiges  Fortes précipitations  Vent > 20 kt






- Altitude de l'aérodrome : 202 ft


KDRI - Beauregard Regional

DERNIER METAR :
  • 281355Z AUTO 00000KT 1 1/4SM BR OVC003 08/07 A3003 RMK AO2 T00800073

METARs EXPIRÉS :
  • 281335Z AUTO 00000KT 1 1/4SM BR OVC003 08/07 A3004 RMK AO2 T00780071
  • 281255Z AUTO 00000KT 2 1/2SM BR OVC003 07/07 A3002 RMK AO2 T00710065
  • 281235Z AUTO 00000KT 1SM BR OVC003 07/06 A3001 RMK AO2 T00700064
  • 281215Z AUTO 00000KT 3/4SM BR OVC003 07/06 A3002 RMK AO2 T00700063
  • 281155Z AUTO 00000KT 1 1/4SM BR OVC003 07/06 A3002 RMK AO2 7//// T00680061 10070 20050
  • 281135Z AUTO 00000KT 1SM BR OVC003 07/06 A3001 RMK AO2 T00680061
  • 281115Z AUTO 00000KT 1SM BR OVC003 07/06 A3001 RMK AO2 T00690062

TAF N/A



MET'MAP, la Météo Aéronautique d'un coup d'oeil ! - Copyright ORBIFLY Décembre 2007 - Disclaimer

ORBIFLY MET'MAP TEAM :

Programmation & Développement : Alexandra Zaïnal
Sur une idée originale de : Baudouin d'Aumeries
Assistance à la programmation : Marc-Olivier Méhu
Soutien technique & logistique : Manuel Goepfert

Contact : metmap@orbifly.com




SOURCES & CREDITS :

   NOAA       Earth
Advisory